KOWI

Details ICAO KOWI
Name OTTAWA MUNI
Region United States
Timezone America/Chicago (UTC-5.0)
Plans Departing 3
Arriving 5
Stats Elevation 966 ft / 294 m (AMSL)
Location 38.538533° -95.253209°
Runways 3
Magnetic Variation 2.120° E
Sunrise 2018-05-27 11:02:20 UTC / 2018-05-27 06:02:20 Local
Sunset 2018-05-28 01:36:57 UTC / 2018-05-27 20:36:57 Local
Advertisement - Login to hide

Runways

ID Width Length Bearing (true) Bearing (mag) Surface Threshold Offset Overrun Length
05 81 ft / 25 m 2,341 ft / 713 m 51.45° 49.33° Grass 0 ft / 0 m 0 ft / 0 m
13 72 ft / 22 m 1,898 ft / 578 m 131.42° 129.30° Grass 0 ft / 0 m 0 ft / 0 m
17 75 ft / 23 m 4,509 ft / 1,374 m 179.80° 177.68° Asphalt 0 ft / 0 m 0 ft / 0 m
23 81 ft / 25 m 2,341 ft / 713 m 231.46° 229.34° Grass 0 ft / 0 m 0 ft / 0 m
31 72 ft / 22 m 1,898 ft / 578 m 311.42° 309.30° Grass 0 ft / 0 m 0 ft / 0 m
35 75 ft / 23 m 4,509 ft / 1,374 m 359.80° 357.68° Asphalt 0 ft / 0 m 0 ft / 0 m

Map

Weather


0- 5 10 15 20 25 30 35+ Temperature / ° C

Clouds and Precipitation
Forecast for 2018-05-27 06:00 UTC. Updated 3 hours ago

Ground ~20,000 ft ~40,000 ft Winds

METAR

KOWI 270800Z AUTO 18005KT 10SM CLR 20/20 A2983 RMK AO2 PWINO

TAF

Not found

Frequencies

Unicom 122.80 MHz CTAF/UNICOM
Warning: Do not use this data for real-world aviation or navigation. No guarantee of current accuracy is given.